Time;durP1;ratioP1;P1;durP2;ratioP2;P2;SDS_P1;SDS_P2;PMS_P1;PMS_P2;Temp;Humidity;BMP_temperature;BMP_pressure;BME280_temperature;BME280_humidity;BME280_pressure;Samples;Min_cycle;Max_cycle;Signal;HPM_P1;HPM_P2
2023/05/02 00:02:24;;;;;;;6.13;4.93;;;11.30;99.90;;;14.45;55.73;97702.72;5032107;28;20054;-44
2023/05/02 00:04:52;;;;;;;7.03;5.50;;;11.30;99.90;;;14.46;55.78;97696.34;5032140;28;20052;-44
2023/05/02 00:07:20;;;;;;;7.15;4.65;;;11.40;99.90;;;14.48;55.75;97702.34;5031956;28;20045;-44
2023/05/02 00:09:47;;;;;;;6.40;5.07;;;11.40;99.90;;;14.47;55.50;97699.84;5032019;28;20038;-44
2023/05/02 00:12:15;;;;;;;6.33;5.53;;;11.40;99.90;;;14.51;55.59;97699.28;5022645;28;20045;-45
2023/05/02 00:14:42;;;;;;;6.37;5.10;;;11.40;99.90;;;14.42;55.85;97696.88;5032061;28;20069;-45
2023/05/02 00:17:19;;;;;;;5.90;5.30;;;11.30;99.90;;;14.38;55.69;97693.75;5030416;28;20049;-46
2023/05/02 00:19:47;;;;;;;8.07;5.70;;;11.30;99.90;;;14.40;55.67;97701.59;5031610;28;20053;-44
2023/05/02 00:22:14;;;;;;;5.47;4.72;;;11.30;99.90;;;14.29;55.78;97700.22;5031689;28;20500;-45
2023/05/02 00:24:42;;;;;;;7.40;5.27;;;11.20;99.90;;;14.20;56.11;97696.78;5030769;28;20048;-45
2023/05/02 00:27:10;;;;;;;6.00;4.77;;;11.20;99.90;;;14.21;56.01;97693.09;5031454;28;20052;-52
2023/05/02 00:29:38;;;;;;;7.03;5.17;;;11.10;99.90;;;14.22;56.04;97693.94;5030330;28;20049;-50
2023/05/02 00:32:05;;;;;;;7.17;5.40;;;11.10;99.90;;;14.17;56.20;97697.13;5031997;28;20060;-46
2023/05/02 00:34:33;;;;;;;6.20;5.60;;;11.10;99.90;;;14.12;56.15;97700.38;5031390;28;20045;-46
2023/05/02 00:37:01;;;;;;;7.43;5.73;;;11.10;99.90;;;14.07;56.36;97701.94;5030345;28;20061;-44
2023/05/02 00:39:28;;;;;;;6.43;5.50;;;11.10;99.90;;;14.13;56.19;97695.84;5031186;28;20444;-47
2023/05/02 00:41:57;;;;;;;6.30;5.37;;;11.10;99.90;;;14.10;56.23;97702.41;5030125;28;20056;-45
2023/05/02 00:44:25;;;;;;;7.30;5.70;;;11.10;99.90;;;14.04;56.29;97702.31;5030126;28;20520;-45
2023/05/02 00:46:54;;;;;;;6.60;5.53;;;11.10;99.90;;;13.96;56.54;97693.34;5029856;28;20045;-44
2023/05/02 00:49:22;;;;;;;6.47;5.77;;;11.00;99.90;;;14.02;56.54;97701.66;5031259;28;20045;-46
2023/05/02 00:51:49;;;;;;;7.07;5.03;;;11.00;99.90;;;13.96;56.39;97703.22;5031257;28;20049;-47
2023/05/02 00:54:17;;;;;;;8.17;5.13;;;10.90;99.90;;;13.92;56.34;97704.56;5023263;28;20052;-45
2023/05/02 00:56:45;;;;;;;6.67;5.80;;;10.90;99.90;;;13.88;56.47;97696.09;5029325;28;20053;-45
2023/05/02 00:59:14;;;;;;;9.23;5.70;;;10.80;99.90;;;13.80;56.74;97709.53;5030259;28;20304;-44
2023/05/02 01:02:11;;;;;;;7.23;5.20;;;10.80;99.90;;;13.81;56.63;97705.84;5030060;28;20053;-44
2023/05/02 01:05:03;;;;;;;7.73;5.17;;;10.80;99.90;;;13.70;56.93;97701.75;5024600;28;20057;-44
2023/05/02 01:07:46;;;;;;;6.47;5.27;;;10.70;99.90;;;13.71;56.73;97699.91;5023837;28;20041;-45
2023/05/02 01:11:10;;;;;;;6.33;5.63;;;10.70;99.90;;;13.61;56.96;97702.84;5029501;28;20501;-45
2023/05/02 01:13:41;;;;;;;7.20;5.60;;;10.70;99.90;;;13.73;56.94;97706.75;5039934;28;20053;-48
2023/05/02 01:16:12;;;;;;;6.83;5.20;;;10.70;99.90;;;13.67;56.89;97707.47;5030902;28;20364;-45
2023/05/02 01:18:42;;;;;;;9.13;6.27;;;10.70;99.90;;;13.59;57.25;97711.03;5029437;28;20057;-44
2023/05/02 01:21:11;;;;;;;7.77;6.20;;;10.70;99.90;;;13.69;57.15;97708.13;5029549;28;20053;-47
2023/05/02 01:24:15;;;;;;;6.67;5.47;;;10.80;99.90;;;13.70;56.85;97711.63;5027080;28;20056;-43
2023/05/02 01:27:17;;;;;;;7.68;6.75;;;10.70;99.90;;;13.75;56.85;97710.06;5025802;28;20427;-44
2023/05/02 01:29:48;;;;;;;6.47;5.53;;;10.80;99.90;;;13.76;56.76;97703.72;5025467;28;20049;-45
2023/05/02 01:32:20;;;;;;;6.37;5.60;;;10.80;99.90;;;13.79;56.52;97705.19;5030996;28;20038;-43
2023/05/02 01:34:51;;;;;;;8.10;6.30;;;10.80;99.90;;;13.79;56.47;97707.88;5021380;28;20424;-47
2023/05/02 01:37:20;;;;;;;6.93;5.60;;;10.80;99.90;;;13.73;56.83;97705.94;5029838;28;20034;-44
2023/05/02 01:39:50;;;;;;;7.63;5.50;;;10.80;99.90;;;13.74;56.89;97708.41;5029823;28;20493;-45
2023/05/02 01:42:20;;;;;;;6.90;5.53;;;10.80;99.90;;;13.67;56.88;97712.81;5029254;28;20417;-46
2023/05/02 01:44:49;;;;;;;6.80;6.07;;;10.80;99.90;;;13.50;57.06;97714.78;5030491;28;20045;-46
2023/05/02 01:47:18;;;;;;;5.53;4.43;;;10.70;99.90;;;13.47;57.31;97714.28;5029589;28;20501;-44
2023/05/02 01:49:47;;;;;;;8.00;6.30;;;10.60;99.90;;;13.40;57.46;97724.88;5013339;28;20497;-44
2023/05/02 01:52:15;;;;;;;5.73;5.10;;;10.50;99.90;;;13.45;57.31;97722.50;5033275;28;20056;-45
2023/05/02 01:54:44;;;;;;;6.00;4.83;;;10.50;99.90;;;13.44;57.13;97720.03;5033127;28;20092;-48
2023/05/02 01:57:13;;;;;;;6.03;5.23;;;10.50;99.90;;;13.38;57.29;97729.56;5032362;28;20049;-45
2023/05/02 01:59:43;;;;;;;7.20;5.40;;;10.50;99.90;;;13.38;57.34;97730.41;5033470;28;20189;-46
2023/05/02 02:02:13;;;;;;;8.37;5.90;;;10.40;99.90;;;13.31;57.51;97728.59;5033061;28;20068;-43
2023/05/02 02:04:42;;;;;;;6.27;5.47;;;10.40;99.90;;;13.31;57.51;97729.44;5032917;28;20045;-45
2023/05/02 02:07:13;;;;;;;6.77;5.30;;;10.40;99.90;;;13.35;57.29;97728.06;5032627;28;20057;-44
2023/05/02 02:09:40;;;;;;;7.60;6.73;;;10.40;99.90;;;13.34;57.45;97726.41;5033093;28;20049;-45
2023/05/02 02:12:41;;;;;;;6.77;5.73;;;10.40;99.90;;;13.36;57.29;97734.28;5032729;28;20116;-44
2023/05/02 02:15:26;;;;;;;5.70;5.10;;;10.40;99.90;;;13.30;57.30;97734.94;5019270;28;20057;-45
2023/05/02 02:18:08;;;;;;;6.87;5.83;;;10.30;99.90;;;13.26;57.37;97739.81;5016207;28;20045;-46
2023/05/02 02:20:37;;;;;;;8.20;5.47;;;10.30;99.90;;;13.24;57.39;97732.97;5026615;28;20053;-44
2023/05/02 02:23:07;;;;;;;7.57;5.73;;;10.20;99.90;;;13.19;57.30;97746.84;5033738;28;20049;-44
2023/05/02 02:25:36;;;;;;;6.43;5.20;;;10.20;99.90;;;13.13;57.64;97751.06;5016366;28;20440;-45
2023/05/02 02:28:04;;;;;;;8.30;5.97;;;10.20;99.90;;;13.07;58.01;97754.44;5031807;28;20049;-44
2023/05/02 02:30:33;;;;;;;11.70;6.00;;;10.10;99.90;;;13.12;57.79;97759.25;5032311;28;20060;-45
2023/05/02 02:33:01;;;;;;;7.67;5.67;;;10.10;99.90;;;13.11;57.51;97760.28;5032489;28;20045;-45
2023/05/02 02:35:36;;;;;;;7.07;6.20;;;10.10;99.90;;;13.13;57.82;97760.94;5033451;28;20045;-44
2023/05/02 02:38:22;;;;;;;7.07;6.20;;;10.20;99.90;;;13.06;58.25;97768.78;5032069;28;20041;-44
2023/05/02 02:40:58;;;;;;;6.83;5.10;;;10.20;99.90;;;13.11;57.81;97773.63;5032262;28;20053;-46
2023/05/02 02:43:47;;;;;;;8.90;5.93;;;10.10;99.90;;;13.17;57.94;97767.59;5024476;28;20505;-44
2023/05/02 02:46:42;;;;;;;7.13;6.43;;;10.20;99.90;;;13.23;57.74;97779.44;5032181;28;20164;-45
2023/05/02 02:49:48;;;;;;;6.93;6.03;;;10.30;99.90;;;13.12;58.19;97781.47;5033385;28;20048;-43
2023/05/02 02:52:47;;;;;;;7.23;5.90;;;10.20;99.90;;;13.14;57.95;97789.31;5017753;28;20049;-44
2023/05/02 02:55:53;;;;;;;7.10;5.97;;;10.20;99.90;;;12.99;58.45;97786.56;5031702;28;20052;-44
2023/05/02 02:58:38;;;;;;;7.40;5.80;;;10.20;99.90;;;13.09;58.24;97792.50;5018746;28;20045;-44
2023/05/02 03:01:13;;;;;;;6.47;5.63;;;10.10;99.90;;;13.11;58.13;97790.50;5031749;28;20053;-45
2023/05/02 03:03:43;;;;;;;9.57;6.17;;;10.10;99.90;;;13.02;58.61;97790.72;5031815;28;20045;-44
2023/05/02 03:06:11;;;;;;;7.23;6.37;;;10.00;99.90;;;12.97;58.58;97794.72;5014891;28;20053;-47
2023/05/02 03:08:40;;;;;;;12.63;6.13;;;10.00;99.90;;;12.98;58.56;97801.72;5031488;28;20041;-43
2023/05/02 03:11:11;;;;;;;7.33;5.70;;;10.00;99.90;;;13.04;58.14;97802.06;5031760;28;20304;-44
2023/05/02 03:13:39;;;;;;;9.23;7.07;;;10.00;99.90;;;13.05;58.43;97803.72;5032014;28;20053;-44
2023/05/02 03:16:22;;;;;;;7.63;5.70;;;10.00;99.90;;;12.96;58.56;97813.59;5031493;28;20420;-44
2023/05/02 03:18:49;;;;;;;7.57;6.20;;;10.00;99.90;;;12.88;58.60;97808.28;5032545;28;20053;-45
2023/05/02 03:21:17;;;;;;;8.43;6.73;;;9.90;99.90;;;12.90;58.83;97814.28;5031537;28;20101;-46
2023/05/02 03:23:44;;;;;;;7.13;5.40;;;10.00;99.90;;;12.88;58.88;97818.97;5031502;28;20057;-46
2023/05/02 03:26:12;;;;;;;7.40;6.40;;;10.00;99.90;;;12.92;59.06;97821.13;5031085;28;20528;-45
2023/05/02 03:28:40;;;;;;;8.23;6.67;;;10.00;99.90;;;12.98;58.64;97823.09;5030225;28;20260;-45
2023/05/02 03:31:08;;;;;;;8.00;6.30;;;10.00;99.90;;;13.06;58.74;97824.09;5031856;28;20041;-44
2023/05/02 03:33:38;;;;;;;9.20;7.20;;;10.00;99.90;;;13.09;58.41;97824.59;5031539;28;20049;-45
2023/05/02 03:36:06;;;;;;;8.20;6.80;;;10.10;99.90;;;13.18;58.24;97836.91;5033078;28;20378;-44
2023/05/02 03:38:34;;;;;;;7.17;5.80;;;10.10;99.90;;;13.15;58.45;97831.91;5032335;28;20057;-44
2023/05/02 03:41:06;;;;;;;7.10;6.40;;;10.10;99.90;;;13.10;58.37;97833.44;5031579;28;20076;-45
2023/05/02 03:43:34;;;;;;;6.93;5.70;;;10.10;99.90;;;13.06;58.57;97835.59;5030809;28;20061;-45
2023/05/02 03:46:08;;;;;;;7.97;6.17;;;10.10;99.90;;;13.09;59.05;97837.94;5030812;28;20053;-45
2023/05/02 03:48:38;;;;;;;7.17;6.37;;;10.10;99.90;;;13.13;58.88;97846.47;5023106;28;20057;-44
2023/05/02 03:51:08;;;;;;;7.33;5.67;;;10.20;99.90;;;13.08;58.81;97849.63;5030901;28;20045;-44
2023/05/02 03:53:41;;;;;;;8.67;6.17;;;10.20;99.90;;;13.20;58.62;97852.75;5030680;28;20060;-44
2023/05/02 03:56:09;;;;;;;9.37;6.60;;;10.20;99.90;;;13.22;58.50;97855.28;5030503;28;20493;-43
2023/05/02 03:58:48;;;;;;;7.90;6.20;;;10.20;99.90;;;12.94;59.19;97856.53;5015810;28;20049;-45
2023/05/02 04:01:19;;;;;;;9.03;6.30;;;10.10;99.90;;;13.08;59.06;97854.16;5030892;28;20423;-46
2023/05/02 04:03:50;;;;;;;6.90;6.20;;;10.20;99.90;;;12.90;59.65;97857.06;5030353;28;20053;-43
2023/05/02 04:06:21;;;;;;;8.53;6.83;;;10.10;99.90;;;13.02;58.97;97857.53;5030343;28;20046;-43
2023/05/02 04:08:57;;;;;;;8.70;6.40;;;10.20;99.90;;;12.90;59.72;97859.72;5030864;28;20068;-46
2023/05/02 04:11:27;;;;;;;8.20;6.93;;;10.20;99.90;;;12.97;59.22;97860.72;5030851;28;20425;-47
2023/05/02 04:13:55;;;;;;;9.20;6.87;;;10.20;99.90;;;12.95;59.63;97860.03;5031363;28;20056;-44
2023/05/02 04:16:23;;;;;;;8.43;6.57;;;10.20;99.90;;;12.98;59.52;97865.03;5030657;28;20508;-44
2023/05/02 04:18:51;;;;;;;8.47;6.80;;;10.20;99.90;;;13.07;59.20;97863.19;5030018;28;20041;-44
2023/05/02 04:21:19;;;;;;;9.20;6.63;;;10.20;99.90;;;13.15;58.72;97871.19;5030577;28;20057;-44
2023/05/02 04:23:47;;;;;;;8.10;6.63;;;10.30;99.90;;;13.23;58.61;97873.81;5028093;28;20045;-46
2023/05/02 04:26:15;;;;;;;13.33;6.80;;;10.30;99.90;;;13.20;58.72;97867.00;5029012;28;20513;-43
2023/05/02 04:28:52;;;;;;;6.77;5.90;;;10.30;99.90;;;13.21;58.83;97873.16;5029765;28;20080;-47
2023/05/02 04:31:20;;;;;;;10.43;6.70;;;10.30;99.90;;;13.17;58.66;97878.00;5030555;28;20496;-43
2023/05/02 04:33:48;;;;;;;8.60;6.43;;;10.30;99.90;;;13.17;58.95;97870.00;5032362;28;20055;-45
2023/05/02 04:36:21;;;;;;;7.53;6.38;;;10.30;99.90;;;13.31;58.49;97875.66;5029887;28;20056;-46
2023/05/02 04:38:49;;;;;;;7.80;6.30;;;10.40;99.90;;;13.37;58.39;97872.28;5030027;28;20052;-47
2023/05/02 04:41:18;;;;;;;7.77;6.77;;;10.40;99.90;;;13.27;58.50;97876.97;5030335;28;20068;-43
2023/05/02 04:43:52;;;;;;;;;;;10.40;99.90;;;13.48;58.07;97887.97;5030813;28;20045;-45
2023/05/02 04:46:19;;;;;;;8.40;6.37;;;10.40;99.90;;;13.48;58.12;97881.78;5029795;28;19921;-45
2023/05/02 04:48:47;;;;;;;8.60;6.90;;;10.50;99.90;;;13.55;57.89;97888.09;5029452;28;20053;-45
2023/05/02 04:51:15;;;;;;;9.60;7.80;;;10.60;99.90;;;13.62;57.49;97893.59;5029840;28;20436;-46
2023/05/02 04:53:46;;;;;;;8.80;7.47;;;10.60;99.90;;;13.52;57.68;97896.47;5030223;28;20045;-46
2023/05/02 04:56:14;;;;;;;8.80;6.60;;;10.50;99.90;;;13.34;58.36;97896.72;5029616;28;20414;-45
2023/05/02 04:58:42;;;;;;;9.27;7.28;;;10.40;99.90;;;13.42;58.07;97902.03;5030871;28;20409;-43
2023/05/02 05:01:11;;;;;;;9.30;7.27;;;10.40;99.90;;;13.43;57.84;97911.72;5013758;28;20053;-44
2023/05/02 05:03:40;;;;;;;9.83;8.47;;;10.40;99.90;;;13.42;58.20;97918.09;5030212;28;20052;-44
2023/05/02 05:06:09;;;;;;;8.93;7.20;;;10.40;99.90;;;13.35;58.38;97922.44;5029620;28;20045;-46
2023/05/02 05:08:37;;;;;;;9.30;7.60;;;10.40;99.90;;;13.24;58.51;97926.31;5013252;28;20050;-44
2023/05/02 05:11:05;;;;;;;8.40;6.60;;;10.40;99.90;;;13.34;58.34;97932.31;5029683;28;20057;-45
2023/05/02 05:13:33;;;;;;;11.10;7.03;;;10.40;99.90;;;13.46;58.05;97927.41;5005902;28;20041;-45
2023/05/02 05:16:01;;;;;;;7.60;6.57;;;10.50;99.90;;;13.52;58.02;97934.75;5029656;28;20421;-44
2023/05/02 05:18:39;;;;;;;8.27;6.85;;;10.50;99.90;;;13.55;57.96;97931.75;5029992;28;20045;-45
2023/05/02 05:21:09;;;;;;;10.67;6.87;;;10.50;99.90;;;13.57;57.87;97940.44;5030172;28;20049;-45
2023/05/02 05:23:37;;;;;;;9.47;7.33;;;10.50;99.90;;;13.44;58.24;97937.47;5029397;28;20049;-47
2023/05/02 05:26:16;;;;;;;9.47;7.87;;;10.50;99.90;;;13.47;58.41;97944.28;5031041;28;20528;-44
2023/05/02 05:28:47;;;;;;;8.93;7.80;;;10.50;99.90;;;13.54;58.17;97956.81;5027595;28;20104;-44
2023/05/02 05:31:16;;;;;;;11.30;8.63;;;10.60;99.90;;;13.53;58.38;97955.16;5034123;28;20072;-48
2023/05/02 05:33:47;;;;;;;10.17;8.17;;;10.60;99.90;;;13.51;58.55;97962.53;5017681;28;20045;-46
2023/05/02 05:36:16;;;;;;;10.40;9.30;;;10.60;99.90;;;13.65;57.80;97963.63;5034565;28;20048;-47
2023/05/02 05:38:43;;;;;;;9.73;8.30;;;10.70;99.90;;;13.52;58.17;97963.34;5034368;28;20052;-48
2023/05/02 05:41:11;;;;;;;10.27;8.43;;;10.70;99.90;;;13.55;58.14;97976.34;5033209;28;20060;-46
2023/05/02 05:43:43;;;;;;;10.67;8.73;;;10.60;99.90;;;13.62;57.87;97968.50;5033580;28;20057;-45
2023/05/02 05:46:11;;;;;;;9.23;7.97;;;10.60;99.90;;;13.60;58.00;97968.66;5033135;28;20060;-44
2023/05/02 05:48:39;;;;;;;12.33;9.00;;;10.60;99.90;;;13.69;57.69;97978.34;5033597;28;20045;-46
2023/05/02 05:51:06;;;;;;;10.40;8.97;;;10.70;99.90;;;13.37;58.17;97977.41;5033406;28;20046;-45
2023/05/02 05:53:34;;;;;;;11.57;8.80;;;10.60;99.90;;;13.56;58.17;97986.06;5034435;28;20044;-48
2023/05/02 05:56:12;;;;;;;11.23;8.80;;;10.70;99.90;;;13.20;58.49;97989.09;5033169;28;20629;-45
2023/05/02 05:58:45;;;;;;;11.77;9.37;;;10.60;99.90;;;13.62;57.99;97989.91;5026715;28;20056;-49
2023/05/02 06:01:14;;;;;;;12.27;8.95;;;10.70;99.90;;;13.77;57.30;97997.03;5033476;28;20501;-46
2023/05/02 06:03:41;;;;;;;12.20;10.00;;;10.80;99.90;;;13.72;57.31;98002.06;5032620;28;20056;-45
2023/05/02 06:06:09;;;;;;;10.63;8.97;;;10.80;99.90;;;13.65;57.74;97998.41;5024206;28;20046;-48
2023/05/02 06:08:37;;;;;;;13.43;10.57;;;10.80;99.90;;;13.76;57.56;97994.50;5032949;28;20045;-45
2023/05/02 06:11:11;;;;;;;16.40;10.50;;;10.90;99.90;;;13.65;57.96;98000.22;5034187;28;20501;-45
2023/05/02 06:13:38;;;;;;;12.02;9.52;;;10.80;99.90;;;13.75;57.40;98004.41;5025329;28;20505;-47
2023/05/02 06:16:07;;;;;;;14.97;10.00;;;10.90;99.90;;;13.94;57.16;98007.69;5032764;28;20053;-47
2023/05/02 06:18:35;;;;;;;13.63;10.30;;;11.10;99.90;;;14.04;56.70;98010.16;5033731;28;20045;-47
2023/05/02 06:21:04;;;;;;;12.90;11.37;;;11.20;99.90;;;13.75;56.97;98009.75;5032517;28;20068;-45
2023/05/02 06:23:32;;;;;;;14.93;11.70;;;11.00;99.90;;;13.77;57.11;98014.94;5041054;28;20080;-44
2023/05/02 06:26:01;;;;;;;12.67;11.13;;;11.00;99.90;;;13.66;57.38;98021.47;5033887;28;20041;-47
2023/05/02 06:28:30;;;;;;;14.20;11.50;;;10.90;99.90;;;13.80;57.39;98025.28;5033439;28;20041;-48
2023/05/02 06:31:03;;;;;;;18.80;12.53;;;11.00;99.90;;;13.82;57.27;98028.59;5032826;28;20042;-45
2023/05/02 06:33:32;;;;;;;15.82;12.07;;;11.00;99.90;;;13.76;57.54;98026.63;5033728;28;20060;-45
2023/05/02 06:36:00;;;;;;;15.20;11.97;;;11.00;99.90;;;13.63;57.70;98032.53;5033370;28;20513;-45
2023/05/02 06:38:29;;;;;;;15.57;12.43;;;10.90;99.90;;;13.79;57.35;98034.31;5033256;28;20064;-45
2023/05/02 06:40:56;;;;;;;17.77;12.53;;;10.90;99.90;;;13.63;57.79;98037.88;5033668;28;20045;-44
2023/05/02 06:43:24;;;;;;;17.23;12.63;;;10.90;99.90;;;13.81;57.26;98034.97;5033273;28;20053;-46
2023/05/02 06:45:53;;;;;;;15.20;12.65;;;11.00;99.90;;;13.97;57.20;98036.75;5033547;28;20048;-45
2023/05/02 06:48:21;;;;;;;17.47;13.27;;;11.10;99.90;;;14.09;56.81;98045.25;5033188;28;20038;-46
2023/05/02 06:50:52;;;;;;;21.15;13.90;;;11.30;99.90;;;13.91;57.18;98050.84;5033455;28;20089;-45
2023/05/02 06:53:20;;;;;;;22.23;14.17;;;11.10;99.90;;;14.06;56.81;98056.31;5033314;28;20037;-45
2023/05/02 06:55:48;;;;;;;18.75;13.82;;;11.20;99.90;;;13.79;57.01;98051.19;5033074;28;20052;-48
2023/05/02 06:58:16;;;;;;;16.00;12.83;;;11.00;99.90;;;13.90;57.05;98059.84;5032897;28;20056;-46
2023/05/02 07:00:43;;;;;;;17.90;13.88;;;11.00;99.90;;;13.94;56.99;98058.53;5033025;28;20048;-49
2023/05/02 07:03:11;;;;;;;20.67;15.50;;;11.00;99.90;;;13.79;57.45;98075.28;5033305;28;20053;-45
2023/05/02 07:05:39;;;;;;;19.60;14.93;;;11.10;99.90;;;13.73;57.68;98072.47;5031754;28;20041;-44
2023/05/02 07:08:07;;;;;;;20.03;14.57;;;11.00;99.90;;;13.97;57.15;98069.72;5031737;28;20049;-46
2023/05/02 07:10:36;;;;;;;18.97;14.33;;;11.10;99.90;;;13.99;57.18;98077.56;5032921;28;20061;-46
2023/05/02 07:13:03;;;;;;;17.42;13.27;;;11.20;99.90;;;14.09;57.12;98074.69;5033761;28;20038;-45
2023/05/02 07:15:31;;;;;;;17.52;14.15;;;11.30;99.90;;;13.92;57.46;98079.25;5032014;28;20050;-45
2023/05/02 07:17:58;;;;;;;21.75;12.85;;;11.20;99.90;;;14.05;57.05;98084.91;5032647;28;20068;-44
2023/05/02 07:20:26;;;;;;;18.27;14.13;;;11.30;99.90;;;13.90;57.54;98087.47;5032772;28;20049;-46
2023/05/02 07:22:53;;;;;;;22.60;16.02;;;11.20;99.90;;;13.97;57.51;98088.44;5033427;28;20045;-44
2023/05/02 07:25:21;;;;;;;20.85;15.80;;;11.30;99.90;;;14.12;57.32;98088.56;5029250;28;20041;-45
2023/05/02 07:27:48;;;;;;;20.42;14.90;;;11.30;99.90;;;14.02;57.59;98092.47;5031761;28;20046;-46
2023/05/02 07:30:16;;;;;;;19.93;16.10;;;11.30;99.90;;;13.42;59.23;98096.44;5032489;28;20045;-46
2023/05/02 07:32:44;;;;;;;22.57;15.97;;;11.10;99.90;;;13.92;58.29;98087.28;5032848;28;20037;-45
2023/05/02 07:35:11;;;;;;;23.38;18.27;;;11.20;99.90;;;14.17;57.52;98088.91;5032590;28;20409;-45
2023/05/02 07:37:39;;;;;;;21.83;17.55;;;11.50;99.90;;;14.24;57.07;98089.03;5030856;28;20038;-45
2023/05/02 07:40:08;;;;;;;23.20;17.35;;;11.50;99.90;;;14.16;57.15;98094.41;5031237;28;20532;-47
2023/05/02 07:42:35;;;;;;;22.55;17.50;;;11.50;99.90;;;13.77;57.99;98095.22;5032581;28;20429;-44
2023/05/02 07:45:04;;;;;;;24.48;18.08;;;11.30;99.90;;;13.75;58.33;98095.38;5033518;28;20056;-46
2023/05/02 07:47:31;;;;;;;21.92;16.90;;;11.30;99.90;;;13.99;57.74;98096.31;5031802;28;20042;-44
2023/05/02 07:49:59;;;;;;;26.73;18.50;;;11.40;99.90;;;14.14;57.25;98091.09;5031511;28;20041;-45
2023/05/02 07:52:27;;;;;;;27.25;19.45;;;11.60;99.90;;;14.37;56.99;98099.19;5030925;28;20056;-45
2023/05/02 07:54:55;;;;;;;26.13;19.20;;;11.70;99.90;;;14.13;57.83;98095.63;5032213;28;20039;-46
2023/05/02 07:57:22;;;;;;;26.60;18.05;;;11.60;99.90;;;14.19;57.57;98104.81;5031368;28;20045;-45
2023/05/02 07:59:50;;;;;;;26.60;19.48;;;11.70;99.90;;;14.48;56.86;98095.28;5032169;28;20045;-48
2023/05/02 08:02:19;;;;;;;25.70;17.42;;;11.80;99.90;;;14.35;57.32;98107.41;5032187;28;20056;-46
2023/05/02 08:04:47;;;;;;;26.63;20.08;;;11.70;99.90;;;14.23;57.60;98108.78;5031085;28;20505;-44
2023/05/02 08:07:15;;;;;;;24.17;18.98;;;11.70;99.90;;;14.62;56.60;98107.97;5030587;28;20489;-44
2023/05/02 08:09:43;;;;;;;26.77;19.48;;;11.90;99.90;;;14.54;56.67;98111.50;5023922;28;20037;-46
2023/05/02 08:12:11;;;;;;;27.75;21.08;;;11.90;99.90;;;14.44;57.10;98107.34;5031986;28;20037;-46
2023/05/02 08:14:39;;;;;;;28.90;21.10;;;11.90;99.90;;;14.68;56.51;98112.63;5031666;28;20041;-46
2023/05/02 08:17:07;;;;;;;28.92;18.48;;;12.00;99.90;;;14.91;56.02;98119.88;5031670;28;20048;-46
2023/05/02 08:19:34;;;;;;;28.77;21.02;;;12.10;99.90;;;14.74;56.30;98113.78;5031701;28;20053;-47
2023/05/02 08:22:02;;;;;;;29.88;21.48;;;12.10;99.90;;;14.75;56.37;98124.31;5031643;28;20041;-45
2023/05/02 08:24:30;;;;;;;26.20;19.48;;;12.10;99.90;;;14.99;56.11;98125.19;5031592;28;20413;-47
2023/05/02 08:26:57;;;;;;;28.40;22.15;;;12.30;99.90;;;15.05;55.73;98124.47;5031467;28;20044;-45
2023/05/02 08:29:25;;;;;;;25.42;19.27;;;12.30;99.90;;;14.93;56.02;98128.56;5030565;28;20413;-47
2023/05/02 08:31:52;;;;;;;25.45;19.42;;;12.30;99.90;;;15.02;55.68;98132.03;5031707;28;20034;-48
2023/05/02 08:34:20;;;;;;;28.70;20.08;;;12.20;99.90;;;14.88;55.90;98130.94;5031250;28;20052;-45
2023/05/02 08:36:47;;;;;;;28.63;20.30;;;12.10;99.90;;;14.85;55.89;98124.09;5031270;28;20443;-47
2023/05/02 08:39:15;;;;;;;25.48;18.75;;;12.10;99.90;;;15.05;55.43;98129.84;5031763;28;20045;-47
2023/05/02 08:41:43;;;;;;;29.13;20.60;;;12.20;99.90;;;15.06;55.23;98133.34;5031645;28;20052;-48
2023/05/02 08:44:11;;;;;;;29.20;20.60;;;12.20;99.90;;;14.75;55.96;98128.81;5030169;28;20060;-46
2023/05/02 08:46:42;;;;;;;29.30;21.17;;;12.00;99.90;;;14.79;56.06;98124.78;5030646;28;20513;-47
2023/05/02 08:49:10;;;;;;;26.83;20.83;;;12.10;99.90;;;14.60;56.73;98139.47;5031346;28;20046;-48
2023/05/02 08:51:40;;;;;;;30.95;21.58;;;12.00;99.90;;;14.76;56.19;98144.75;5031666;28;20515;-47
2023/05/02 08:54:09;;;;;;;29.98;22.33;;;12.10;99.90;;;14.67;56.79;98140.44;5031317;28;20044;-48
2023/05/02 08:56:37;;;;;;;25.48;17.58;;;12.00;99.90;;;14.62;56.33;98141.97;5030748;28;20049;-48
2023/05/02 08:59:06;;;;;;;30.25;21.70;;;12.00;99.90;;;14.84;56.05;98138.50;5031182;28;20046;-48
2023/05/02 09:01:35;;;;;;;29.40;21.23;;;12.10;99.90;;;15.03;55.75;98153.31;5030710;28;20049;-44
2023/05/02 09:04:03;;;;;;;29.58;20.88;;;12.30;99.90;;;15.20;55.56;98154.03;5031497;28;20053;-45
2023/05/02 09:06:31;;;;;;;31.20;22.83;;;12.50;99.90;;;15.36;55.01;98153.09;5030547;28;20046;-47
2023/05/02 09:08:59;;;;;;;27.58;20.70;;;12.60;99.90;;;15.34;55.02;98150.56;5031112;28;20053;-46
2023/05/02 09:11:28;;;;;;;25.40;20.38;;;12.70;99.90;;;15.33;55.10;98158.78;5030810;28;20037;-47
2023/05/02 09:13:57;;;;;;;27.05;21.02;;;12.70;99.90;;;15.23;55.14;98164.41;5030902;28;20038;-45
2023/05/02 09:16:27;;;;;;;28.20;20.83;;;12.70;99.90;;;15.45;55.20;98157.38;5030802;28;20030;-46
2023/05/02 09:18:57;;;;;;;26.13;19.27;;;12.80;99.90;;;15.40;54.63;98151.72;5030800;28;20060;-46
2023/05/02 09:21:39;;;;;;;22.63;18.80;;;12.90;99.90;;;15.61;54.74;98153.72;5029476;28;20045;-46
2023/05/02 09:24:20;;;;;;;27.02;20.23;;;13.00;99.90;;;15.60;54.44;98157.41;5031092;28;20037;-48
2023/05/02 09:26:59;;;;;;;29.20;20.55;;;13.10;99.90;;;15.83;54.47;98151.22;5030334;28;20041;-47
2023/05/02 09:29:34;;;;;;;24.33;17.15;;;13.20;99.90;;;16.01;53.73;98154.38;5030052;28;20041;-45
2023/05/02 09:32:04;;;;;;;19.98;15.35;;;13.40;99.90;;;16.12;52.97;98161.16;5030909;28;20041;-47
2023/05/02 09:34:33;;;;;;;22.58;16.17;;;13.50;99.90;;;16.19;51.81;98155.88;5029442;28;20425;-45
2023/05/02 09:37:02;;;;;;;22.55;17.10;;;13.60;99.90;;;16.24;51.99;98153.47;5029434;28;20037;-47
2023/05/02 09:39:30;;;;;;;25.30;17.90;;;13.50;99.90;;;16.11;52.33;98156.78;5029347;28;20041;-50
2023/05/02 09:41:58;;;;;;;25.77;17.90;;;13.50;99.90;;;16.19;52.18;98145.97;5030712;28;20064;-46
2023/05/02 09:44:36;;;;;;;25.08;17.70;;;13.50;99.90;;;15.96;51.50;98156.78;5030737;28;20049;-46
2023/05/02 09:47:05;;;;;;;23.52;17.38;;;13.50;99.90;;;15.95;51.80;98155.09;5030498;28;20608;-44
2023/05/02 09:49:44;;;;;;;24.45;15.77;;;13.40;99.10;;;16.27;52.17;98145.06;5030440;28;20068;-46
2023/05/02 09:52:22;;;;;;;22.77;15.50;;;13.60;99.90;;;16.41;51.45;98143.38;5031340;28;20496;-44
2023/05/02 09:54:51;;;;;;;24.33;16.85;;;13.80;99.90;;;16.48;50.53;98147.81;5022669;28;20042;-44
2023/05/02 09:57:19;;;;;;;22.15;15.95;;;13.90;94.60;;;16.60;50.30;98153.56;5030417;28;20045;-45
2023/05/02 09:59:57;;;;;;;26.35;17.65;;;13.90;99.60;;;16.73;50.43;98147.53;5030311;28;20615;-44
2023/05/02 10:02:29;;;;;;;21.67;16.88;;;14.00;98.80;;;16.87;50.40;98153.91;5030643;28;20041;-46
2023/05/02 10:04:57;;;;;;;21.30;14.73;;;14.20;99.90;;;17.04;49.93;98151.81;5029835;28;20098;-44
2023/05/02 10:07:26;;;;;;;22.00;17.00;;;14.40;95.20;;;17.12;50.17;98155.22;5028989;28;20052;-45
2023/05/02 10:09:57;;;;;;;21.42;16.85;;;14.60;97.00;;;17.04;49.48;98149.97;5030288;28;20042;-46
2023/05/02 10:12:29;;;;;;;21.50;16.65;;;14.60;93.70;;;17.35;49.27;98156.06;5031135;28;20029;-45
2023/05/02 10:15:02;;;;;;;22.02;16.17;;;14.80;93.60;;;17.61;49.18;98147.41;5033034;28;20045;-44
2023/05/02 10:17:32;;;;;;;19.63;14.95;;;15.00;93.10;;;17.76;48.29;98152.69;5032852;28;20057;-45
2023/05/02 10:20:04;;;;;;;17.17;14.10;;;15.10;86.30;;;17.95;47.50;98153.91;5033338;28;20045;-45
2023/05/02 10:22:35;;;;;;;20.30;15.18;;;15.30;82.40;;;17.66;46.94;98155.72;5034197;28;20072;-45
2023/05/02 10:25:03;;;;;;;20.65;14.85;;;15.10;76.00;;;17.75;46.94;98151.06;5033677;28;20497;-45
2023/05/02 10:27:32;;;;;;;21.08;15.55;;;15.10;76.50;;;17.93;47.11;98151.41;5028181;28;20045;-46
2023/05/02 10:30:03;;;;;;;22.63;17.30;;;15.20;77.10;;;17.72;47.54;98149.59;5034224;28;20037;-47